ADDS METAR Data INFO
IDs: Format: Raw Decoded Include TAF

Data at: 0844 UTC 27 Jun 2017

KARM 270835Z AUTO 06003KT 10SM CLR 22/21 A2999 RMK AO2 T02230211
KARM 270815Z AUTO 00000KT 7SM CLR 23/21 A2999 RMK AO2 T02250213
KARM 270755Z AUTO 00000KT 7SM CLR 23/22 A3000 RMK AO2 T02270215
KARM 270735Z AUTO 00000KT 7SM CLR 23/22 A3001 RMK AO2 T02300216
KARM 270715Z AUTO 00000KT 7SM CLR 23/22 A3001 RMK AO2 T02290215
KARM 270655Z AUTO 00000KT 10SM CLR 23/21 A3001 RMK AO2 T02280213
KARM 270635Z AUTO 00000KT 10SM CLR 23/22 A3002 RMK AO2 T02310215
KARM 270615Z AUTO 00000KT 10SM CLR 23/21 A3002 RMK AO2 T02310213
KARM 270555Z AUTO 00000KT 10SM CLR 23/21 A3002 RMK AO2 T02310212 10268 20230 403130230
KARM 270535Z AUTO 00000KT 10SM CLR 23/21 A3002 RMK AO2 T02320210
KARM 270515Z AUTO 12003KT 10SM CLR 23/21 A3002 RMK AO2 T02340211
KARM 270455Z AUTO 11004KT 10SM CLR 24/21 A3002 RMK AO2 T02350212
KARM 270435Z AUTO 12004KT 10SM SCT120 24/22 A3002 RMK AO2 T02370216
KARM 270415Z AUTO 12005KT 10SM CLR 24/22 A3002 RMK AO2 LTG DSNT E T02400220
KARM 270355Z AUTO 12004KT 10SM CLR 24/22 A3002 RMK AO2 T02440223
KARM 270335Z AUTO 10004KT 10SM SCT016 SCT022 SCT031 24/22 A3002 RMK AO2 LTG DSNT NE T02440222
KARM 270315Z AUTO 11004KT 10SM SCT018 24/22 A3002 RMK AO2 LTG DSNT NE T02390217
KARM 270255Z AUTO 00000KT 10SM CLR 24/22 A3002 RMK AO2 T02430217
KARM 270235Z AUTO 07003KT 10SM CLR 25/22 A3001 RMK AO2 T02450217
KARM 270215Z AUTO 00000KT 10SM CLR 25/22 A3001 RMK AO2 T02450218
KARM 270155Z AUTO 06003KT 10SM SCT120 25/22 A3001 RMK AO2 T02480220
KARM 270135Z AUTO 00000KT 10SM SCT120 25/22 A3001 RMK AO2 T02540220
KARM 270115Z AUTO 00000KT 10SM SCT110 26/22 A3001 RMK AO2 T02580220
KARM 270055Z AUTO 09005KT 10SM CLR 26/22 A3001 RMK AO2 T02610217
KARM 270035Z AUTO 10003KT 10SM CLR 26/22 A3001 RMK AO2 LTG DSNT NE T02620217
KARM 270015Z AUTO 05003KT 10SM SCT017 27/22 A3001 RMK AO2 T02650215
KARM 262355Z AUTO 07003KT 10SM CLR 27/21 A3001 RMK AO2 LTG DSNT NE T02670210 10313 20253
KARM 262335Z AUTO 07004KT 10SM CLR 27/21 A3001 RMK AO2 T02670206
KARM 262315Z AUTO 10004KT 10SM CLR 27/21 A2999 RMK AO2 T02650208
KARM 262255Z AUTO 12004KT 10SM SCT090 27/21 A3001 RMK AO2 T02660210
KARM 262235Z AUTO 12006KT 10SM SCT090 26/21 A3001 RMK AO2 T02610207
KARM 262215Z AUTO 09005KT 10SM SCT075 SCT090 26/21 A3002 RMK AO2 LTG DSNT SW T02570210
KARM 262155Z AUTO 12007KT 10SM CLR 26/21 A3000 RMK AO2 LTG DSNT NE T02580210
KARM 262135Z AUTO 12008KT 10SM CLR 26/21 A3001 RMK AO2 LTG DSNT N AND NE T02550213
KARM 262115Z AUTO 11010KT 10SM CLR 26/22 A3002 RMK AO2 LTG DSNT N AND NW T02580215
KARM 262055Z AUTO 12009KT 10SM VCTS CLR 27/23 A3003 RMK AO2 LTG DSNT E T02690225
KARM 262035Z AUTO 12009KT 10SM VCTS CLR 27/22 A3003 RMK AO2 LTG DSNT E T02690221
KARM 262015Z AUTO 13008KT 10SM VCTS SCT085 27/21 A3003 RMK AO2 LTG DSNT E T02720213
KARM 261955Z AUTO 14011KT 10SM VCTS SCT075 26/21 A3003 RMK AO2 LTG DSNT E AND SE T02610213
KARM 261935Z AUTO 13010KT 10SM SCT031 BKN042 OVC070 26/22 A3003 RMK AO2 LTG DSNT E T02620220
KARM 261915Z AUTO 13008KT 10SM -DZ BKN031 BKN044 OVC090 28/22 A3004 RMK AO2 LTG DSNT E AND SE T02790216
KARM 261855Z AUTO 00000KT 10SM SCT033 SCT048 BKN080 30/21 A3004 RMK AO2 T02980209
KARM 261835Z AUTO 03005KT 10SM SCT046 SCT060 SCT075 30/21 A3004 RMK AO2 T03030208
KARM 261815Z AUTO 03005KT 10SM SCT046 SCT060 SCT075 31/22 A3005 RMK AO2 T03110218
KARM 261755Z AUTO 03004KT 10SM SCT033 SCT047 SCT060 31/21 A3006 RMK AO2 T03070214 10313 20231
KARM 261735Z AUTO 01005KT 10SM SCT030 SCT038 BKN060 30/21 A3007 RMK AO2 T02990214
KARM 261715Z AUTO 04004KT 10SM SCT029 SCT039 SCT060 31/21 A3008 RMK AO2 LTG DSNT SE T03050213
KARM 261655Z AUTO 05004KT 10SM SCT027 31/22 A3009 RMK AO2 T03110218
KARM 261635Z AUTO 04006KT 10SM SCT023 SCT031 30/22 A3009 RMK AO2 T03030222
KARM 261615Z AUTO 05006KT 10SM BKN019 BKN029 30/22 A3010 RMK AO2 T02950222
KARM 261555Z AUTO 01007KT 10SM BKN017 BKN024 BKN033 28/23 A3010 RMK AO2 T02820229
KARM 261535Z AUTO 05006KT 10SM BKN017 BKN021 28/23 A3010 RMK AO2 T02840229
KARM 261515Z AUTO 05005KT 10SM SCT013 BKN019 BKN025 28/23 A3011 RMK AO2 T02810230
KARM 261455Z AUTO 04006KT 10SM SCT011 28/23 A3011 RMK AO2 T02830231
KARM 261435Z AUTO 05005KT 10SM CLR 27/23 A3011 RMK AO2 LTG DSNT SE T02720230
KARM 261415Z AUTO 07005KT 10SM CLR 27/23 A3011 RMK AO2 T02700227
KARM 261355Z AUTO 07008KT 10SM CLR 27/23 A3011 RMK AO2 T02660226
KARM 261335Z AUTO 07005KT 10SM CLR 26/23 A3010 RMK AO2 T02570226
KARM 261315Z AUTO 06003KT 10SM CLR 25/23 A3010 RMK AO2 T02500226
KARM 261255Z AUTO 04003KT 10SM CLR 24/23 A3009 RMK AO2 T02410225
KARM 261235Z AUTO 00000KT 10SM SCT016 SCT028 24/23 A3009 RMK AO2 T02360225
KARM 261215Z AUTO 00000KT 5SM BR SCT016 SCT028 23/22 A3010 RMK AO2 T02330221
KARM 261155Z AUTO 00000KT 5SM BR CLR 23/22 A3009 RMK AO2 T02310220 10238 20230
KARM 261135Z AUTO 00000KT 7SM CLR 23/22 A3009 RMK AO2 T02320219
KARM 261115Z AUTO 00000KT 10SM CLR 23/22 A3009 RMK AO2 T02310217
KARM 261055Z AUTO 00000KT 10SM SCT110 23/22 A3008 RMK AO2 T02300216
KARM 261035Z AUTO 00000KT 10SM SCT110 23/22 A3008 RMK AO2 T02300215
KARM 261015Z AUTO 00000KT 10SM SCT110 23/22 A3008 RMK AO2 T02300215
KARM 260955Z AUTO 00000KT 10SM SCT100 23/22 A3008 RMK AO2 T02310215
KARM 260935Z AUTO 00000KT 10SM SCT110 23/21 A3008 RMK AO2 T02310213
KARM 260915Z AUTO 05003KT 10SM CLR 23/21 A3008 RMK AO2 T02310213
KARM 260855Z AUTO 00000KT 10SM CLR 23/22 A3009 RMK AO2 T02320216
KARM 260835Z AUTO 15003KT 10SM CLR 23/22 A3010 RMK AO2 T02340217
KARM 260815Z AUTO 00000KT 10SM CLR 24/22 A3009 RMK AO2 T02350216
KARM 260755Z AUTO 08003KT 10SM CLR 24/22 A3008 RMK AO2 T02350216
KARM 260735Z AUTO 07003KT 10SM CLR 24/22 A3009 RMK AO2 T02360215
KARM 260715Z AUTO 07004KT 10SM SCT024 SCT030 SCT035 24/22 A3009 RMK AO2 T02380216
KARM 260655Z AUTO 08003KT 10SM SCT021 SCT028 SCT034 24/22 A3009 RMK AO2 T02370218
KARM 260635Z AUTO 08004KT 10SM SCT021 SCT032 24/22 A3009 RMK AO2 T02350219
KARM 260615Z AUTO 06003KT 10SM CLR 24/22 A3010 RMK AO2 T02350220
KARM 260555Z AUTO 06003KT 10SM CLR 23/22 A3011 RMK AO2 T02330218 10278 20233 403150217
KARM 260535Z AUTO 00000KT 10SM CLR 24/22 A3011 RMK AO2 T02370221
KARM 260515Z AUTO 00000KT 10SM CLR 24/22 A3011 RMK AO2 T02400222
KARM 260455Z AUTO 10003KT 10SM CLR 24/22 A3011 RMK AO2 T02400222
KARM 260435Z AUTO 00000KT 10SM CLR 24/23 A3012 RMK AO2 T02420225
KARM 260415Z AUTO 06003KT 10SM CLR 24/23 A3011 RMK AO2 T02430225
KARM 260355Z AUTO 07004KT 10SM CLR 24/23 A3011 RMK AO2 T02420225
KARM 260335Z AUTO 00000KT 10SM CLR 25/23 A3011 RMK AO2 T02460228
KARM 260315Z AUTO 00000KT 10SM CLR 25/23 A3010 RMK AO2 T02450226
KARM 260255Z AUTO 00000KT 10SM CLR 25/23 A3010 RMK AO2 T02480226
KARM 260235Z AUTO 00000KT 10SM CLR 25/23 A3009 RMK AO2 T02500226
KARM 260215Z AUTO 09003KT 10SM CLR 25/23 A3009 RMK AO2 T02520226
KARM 260155Z AUTO 10003KT 10SM CLR 25/23 A3008 RMK AO2 T02540225
KARM 260135Z AUTO 00000KT 10SM CLR 26/23 A3008 RMK AO2 T02600225
KARM 260115Z AUTO 00000KT 10SM CLR 26/22 A3008 RMK AO2 T02630222
KARM 260055Z AUTO 00000KT 10SM CLR 27/22 A3008 RMK AO2 T02680220
KARM 260035Z AUTO 11003KT 10SM CLR 27/21 A3007 RMK AO2 T02700206
KARM 260015Z AUTO 11003KT 10SM CLR 27/20 A3008 RMK AO2 LTG DSNT W T02740196
KARM 252355Z AUTO 13004KT 10SM CLR 28/20 A3008 RMK AO2 T02790202 10315 20267
KARM 252335Z AUTO 11008KT 10SM SCT034 SCT060 28/20 A3007 RMK AO2 T02800198
KARM 252315Z AUTO 12007KT 10SM SCT034 29/21 A3007 RMK AO2 T02920214
KARM 252255Z AUTO 13009KT 10SM SCT034 SCT048 30/22 A3007 RMK AO2 T02960218
KARM 252235Z AUTO 13007KT 10SM SCT034 31/21 A3006 RMK AO2 LTG DSNT NW T03100212
KARM 252215Z AUTO 09007KT 10SM CLR 31/21 A3008 RMK AO2 LTG DSNT SW T03110207
KARM 252155Z AUTO 08008G14KT 10SM CLR 31/20 A3008 RMK AO2 T03110201
KARM 252135Z AUTO 09008KT 10SM CLR 31/21 A3007 RMK AO2 LTG DSNT SW T03110206
KARM 252115Z AUTO 09009KT 10SM CLR 31/20 A3008 RMK AO2 LTG DSNT SW T03110197
KARM 252055Z AUTO 08009KT 10SM CLR 31/19 A3008 RMK AO2 LTG DSNT SW T03080187


Page loaded:  08:44 UTC  |   01:44 AM Pacific  |   02:44 AM Mountain  |   03:44 AM Central  |   04:44 AM Eastern

 

ADVISORIES

FORECASTS

FORECASTS

OBSERVATIONS

USER TOOLS

ABOUT US